sensor_id;sensor_type;location;lat;lon;timestamp;temperature;humidity
5881;DHT22;2966;52.598;10.928;2022-11-20T00:01:27;-2.00;99.90
5881;DHT22;2966;52.598;10.928;2022-11-20T00:03:55;-2.00;99.90
5881;DHT22;2966;52.598;10.928;2022-11-20T00:06:25;-2.00;99.90
5881;DHT22;2966;52.598;10.928;2022-11-20T00:08:54;-2.00;99.90
5881;DHT22;2966;52.598;10.928;2022-11-20T00:11:23;-2.00;99.90
5881;DHT22;2966;52.598;10.928;2022-11-20T00:13:52;-1.90;99.90
5881;DHT22;2966;52.598;10.928;2022-11-20T00:16:22;-2.00;99.90
5881;DHT22;2966;52.598;10.928;2022-11-20T00:18:49;-1.90;99.90
5881;DHT22;2966;52.598;10.928;2022-11-20T00:21:18;-1.90;99.90
5881;DHT22;2966;52.598;10.928;2022-11-20T00:23:46;-1.90;99.90
5881;DHT22;2966;52.598;10.928;2022-11-20T00:26:16;-1.90;99.90
5881;DHT22;2966;52.598;10.928;2022-11-20T00:28:44;-1.90;99.90
5881;DHT22;2966;52.598;10.928;2022-11-20T00:31:15;-1.90;99.90
5881;DHT22;2966;52.598;10.928;2022-11-20T00:33:43;-1.80;99.90
5881;DHT22;2966;52.598;10.928;2022-11-20T00:36:12;-1.80;99.90
5881;DHT22;2966;52.598;10.928;2022-11-20T00:38:39;-1.80;99.90
5881;DHT22;2966;52.598;10.928;2022-11-20T00:41:08;-1.80;99.90
5881;DHT22;2966;52.598;10.928;2022-11-20T00:43:37;-1.80;99.90
5881;DHT22;2966;52.598;10.928;2022-11-20T00:46:07;-1.80;99.90
5881;DHT22;2966;52.598;10.928;2022-11-20T00:48:35;-1.70;99.90
5881;DHT22;2966;52.598;10.928;2022-11-20T00:51:02;-1.70;99.90
5881;DHT22;2966;52.598;10.928;2022-11-20T00:53:29;-1.70;99.90
5881;DHT22;2966;52.598;10.928;2022-11-20T00:55:57;-1.70;99.90
5881;DHT22;2966;52.598;10.928;2022-11-20T00:58:29;-1.70;99.90
5881;DHT22;2966;52.598;10.928;2022-11-20T01:01:00;-1.70;99.90
5881;DHT22;2966;52.598;10.928;2022-11-20T01:03:27;-1.70;99.90
5881;DHT22;2966;52.598;10.928;2022-11-20T01:05:54;-1.60;99.90
5881;DHT22;2966;52.598;10.928;2022-11-20T01:08:28;-1.60;99.90
5881;DHT22;2966;52.598;10.928;2022-11-20T01:10:59;-1.60;99.90
5881;DHT22;2966;52.598;10.928;2022-11-20T01:13:31;-1.60;99.90
5881;DHT22;2966;52.598;10.928;2022-11-20T01:16:05;-1.60;99.90
5881;DHT22;2966;52.598;10.928;2022-11-20T01:18:32;-1.60;99.90
5881;DHT22;2966;52.598;10.928;2022-11-20T01:21:03;-1.60;99.90
5881;DHT22;2966;52.598;10.928;2022-11-20T01:23:32;-1.60;99.90
5881;DHT22;2966;52.598;10.928;2022-11-20T01:26:00;-1.60;99.90
5881;DHT22;2966;52.598;10.928;2022-11-20T01:28:30;-1.60;99.90
5881;DHT22;2966;52.598;10.928;2022-11-20T01:30:57;-1.60;99.90
5881;DHT22;2966;52.598;10.928;2022-11-20T01:33:24;-1.60;99.90
5881;DHT22;2966;52.598;10.928;2022-11-20T01:35:51;-1.50;99.90
5881;DHT22;2966;52.598;10.928;2022-11-20T01:38:19;-1.50;99.90
5881;DHT22;2966;52.598;10.928;2022-11-20T01:40:54;-1.50;99.90
5881;DHT22;2966;52.598;10.928;2022-11-20T01:43:21;-1.50;99.90
5881;DHT22;2966;52.598;10.928;2022-11-20T01:48:50;-1.60;99.90
5881;DHT22;2966;52.598;10.928;2022-11-20T01:51:21;-1.60;99.90
5881;DHT22;2966;52.598;10.928;2022-11-20T01:53:52;-1.60;99.90
5881;DHT22;2966;52.598;10.928;2022-11-20T01:56:20;-1.70;99.90
5881;DHT22;2966;52.598;10.928;2022-11-20T01:58:50;-1.60;99.90
5881;DHT22;2966;52.598;10.928;2022-11-20T02:01:20;-1.60;99.90
5881;DHT22;2966;52.598;10.928;2022-11-20T02:03:47;-1.60;99.90
5881;DHT22;2966;52.598;10.928;2022-11-20T02:06:19;-1.60;99.90
5881;DHT22;2966;52.598;10.928;2022-11-20T02:08:47;-1.50;99.90
5881;DHT22;2966;52.598;10.928;2022-11-20T02:11:14;-1.50;99.90
5881;DHT22;2966;52.598;10.928;2022-11-20T02:13:41;-1.60;99.90
5881;DHT22;2966;52.598;10.928;2022-11-20T02:16:21;-1.50;99.90
5881;DHT22;2966;52.598;10.928;2022-11-20T02:18:48;-1.50;99.90
5881;DHT22;2966;52.598;10.928;2022-11-20T02:21:28;-1.50;99.90
5881;DHT22;2966;52.598;10.928;2022-11-20T02:24:00;-1.50;99.90
5881;DHT22;2966;52.598;10.928;2022-11-20T02:26:30;-1.40;99.90
5881;DHT22;2966;52.598;10.928;2022-11-20T02:28:58;-1.50;99.90
5881;DHT22;2966;52.598;10.928;2022-11-20T02:31:26;-1.50;99.90
5881;DHT22;2966;52.598;10.928;2022-11-20T02:33:56;-1.50;99.90
5881;DHT22;2966;52.598;10.928;2022-11-20T02:36:25;-1.50;99.90
5881;DHT22;2966;52.598;10.928;2022-11-20T02:38:53;-1.50;99.90
5881;DHT22;2966;52.598;10.928;2022-11-20T02:41:31;-1.40;99.90
5881;DHT22;2966;52.598;10.928;2022-11-20T02:43:57;-1.40;99.90
5881;DHT22;2966;52.598;10.928;2022-11-20T02:46:24;-1.40;99.90
5881;DHT22;2966;52.598;10.928;2022-11-20T02:48:51;-1.50;99.90
5881;DHT22;2966;52.598;10.928;2022-11-20T02:51:18;-1.50;99.90
5881;DHT22;2966;52.598;10.928;2022-11-20T02:53:45;-1.50;99.90
5881;DHT22;2966;52.598;10.928;2022-11-20T02:56:12;-1.50;99.90
5881;DHT22;2966;52.598;10.928;2022-11-20T02:58:40;-1.50;99.90
5881;DHT22;2966;52.598;10.928;2022-11-20T03:01:07;-1.50;99.90
5881;DHT22;2966;52.598;10.928;2022-11-20T03:03:34;-1.50;99.90
5881;DHT22;2966;52.598;10.928;2022-11-20T03:06:00;-1.50;99.90
5881;DHT22;2966;52.598;10.928;2022-11-20T03:08:27;-1.50;99.90
5881;DHT22;2966;52.598;10.928;2022-11-20T03:10:54;-1.50;99.90
5881;DHT22;2966;52.598;10.928;2022-11-20T03:13:21;-1.50;99.90
5881;DHT22;2966;52.598;10.928;2022-11-20T03:15:49;-1.40;99.90
5881;DHT22;2966;52.598;10.928;2022-11-20T03:18:16;-1.50;99.90
5881;DHT22;2966;52.598;10.928;2022-11-20T03:20:43;-1.50;99.90
5881;DHT22;2966;52.598;10.928;2022-11-20T03:23:10;-1.50;99.90
5881;DHT22;2966;52.598;10.928;2022-11-20T03:25:36;-1.40;99.90
5881;DHT22;2966;52.598;10.928;2022-11-20T03:28:04;-1.40;99.90
5881;DHT22;2966;52.598;10.928;2022-11-20T03:30:30;-1.40;99.90
5881;DHT22;2966;52.598;10.928;2022-11-20T03:32:59;-1.40;99.90
5881;DHT22;2966;52.598;10.928;2022-11-20T03:35:26;-1.30;99.90
5881;DHT22;2966;52.598;10.928;2022-11-20T03:37:53;-1.30;99.90
5881;DHT22;2966;52.598;10.928;2022-11-20T03:40:19;-1.30;99.90
5881;DHT22;2966;52.598;10.928;2022-11-20T03:42:46;-1.30;99.90
5881;DHT22;2966;52.598;10.928;2022-11-20T03:45:14;-1.30;99.90
5881;DHT22;2966;52.598;10.928;2022-11-20T03:47:41;-1.30;99.90
5881;DHT22;2966;52.598;10.928;2022-11-20T03:50:10;-1.20;99.90
5881;DHT22;2966;52.598;10.928;2022-11-20T03:52:39;-1.20;99.90
5881;DHT22;2966;52.598;10.928;2022-11-20T03:55:07;-1.20;99.90
5881;DHT22;2966;52.598;10.928;2022-11-20T03:57:34;-1.20;99.90
5881;DHT22;2966;52.598;10.928;2022-11-20T04:00:01;-1.20;99.90
5881;DHT22;2966;52.598;10.928;2022-11-20T04:02:28;-1.20;99.90
5881;DHT22;2966;52.598;10.928;2022-11-20T04:04:54;-1.20;99.90
5881;DHT22;2966;52.598;10.928;2022-11-20T04:07:23;-1.20;99.90
5881;DHT22;2966;52.598;10.928;2022-11-20T04:09:49;-1.20;99.90
5881;DHT22;2966;52.598;10.928;2022-11-20T04:12:16;-1.20;99.90
5881;DHT22;2966;52.598;10.928;2022-11-20T04:14:43;-1.20;99.90
5881;DHT22;2966;52.598;10.928;2022-11-20T04:17:10;-1.10;99.90
5881;DHT22;2966;52.598;10.928;2022-11-20T04:19:37;-1.20;99.90
5881;DHT22;2966;52.598;10.928;2022-11-20T04:22:04;-1.20;99.90
5881;DHT22;2966;52.598;10.928;2022-11-20T04:24:32;-1.10;99.90
5881;DHT22;2966;52.598;10.928;2022-11-20T04:26:59;-1.20;99.90
5881;DHT22;2966;52.598;10.928;2022-11-20T04:29:25;-1.20;99.90
5881;DHT22;2966;52.598;10.928;2022-11-20T04:31:52;-1.20;99.90
5881;DHT22;2966;52.598;10.928;2022-11-20T04:34:19;-1.10;99.90
5881;DHT22;2966;52.598;10.928;2022-11-20T04:36:46;-1.10;99.90
5881;DHT22;2966;52.598;10.928;2022-11-20T04:39:13;-1.10;99.90
5881;DHT22;2966;52.598;10.928;2022-11-20T04:41:42;-1.10;99.90
5881;DHT22;2966;52.598;10.928;2022-11-20T04:44:09;-1.10;99.90
5881;DHT22;2966;52.598;10.928;2022-11-20T04:46:38;-1.10;99.90
5881;DHT22;2966;52.598;10.928;2022-11-20T04:49:07;-1.10;99.90
5881;DHT22;2966;52.598;10.928;2022-11-20T04:51:34;-1.10;99.90
5881;DHT22;2966;52.598;10.928;2022-11-20T04:54:01;-1.10;99.90
5881;DHT22;2966;52.598;10.928;2022-11-20T04:56:28;-1.10;99.90
5881;DHT22;2966;52.598;10.928;2022-11-20T04:59:00;-1.10;99.90
5881;DHT22;2966;52.598;10.928;2022-11-20T05:01:27;-1.10;99.90
5881;DHT22;2966;52.598;10.928;2022-11-20T05:03:54;-1.10;99.90
5881;DHT22;2966;52.598;10.928;2022-11-20T05:06:22;-1.10;99.90
5881;DHT22;2966;52.598;10.928;2022-11-20T05:08:50;-1.00;99.90
5881;DHT22;2966;52.598;10.928;2022-11-20T05:11:18;-1.00;99.90
5881;DHT22;2966;52.598;10.928;2022-11-20T05:13:45;-1.10;99.90
5881;DHT22;2966;52.598;10.928;2022-11-20T05:16:15;-1.00;99.90
5881;DHT22;2966;52.598;10.928;2022-11-20T05:18:42;-1.10;99.90
5881;DHT22;2966;52.598;10.928;2022-11-20T05:21:11;-1.10;99.90
5881;DHT22;2966;52.598;10.928;2022-11-20T05:23:39;-1.10;99.90
5881;DHT22;2966;52.598;10.928;2022-11-20T05:26:08;-1.10;99.90
5881;DHT22;2966;52.598;10.928;2022-11-20T05:28:38;-1.10;99.90
5881;DHT22;2966;52.598;10.928;2022-11-20T05:31:06;-1.10;99.90
5881;DHT22;2966;52.598;10.928;2022-11-20T05:33:35;-1.10;99.90
5881;DHT22;2966;52.598;10.928;2022-11-20T05:36:02;-1.00;99.90
5881;DHT22;2966;52.598;10.928;2022-11-20T05:38:30;-1.00;99.90
5881;DHT22;2966;52.598;10.928;2022-11-20T05:41:03;-1.00;99.90
5881;DHT22;2966;52.598;10.928;2022-11-20T05:43:32;-1.00;99.90
5881;DHT22;2966;52.598;10.928;2022-11-20T05:46:00;-1.10;99.90
5881;DHT22;2966;52.598;10.928;2022-11-20T05:48:27;-1.10;99.90
5881;DHT22;2966;52.598;10.928;2022-11-20T05:50:56;-1.10;99.90
5881;DHT22;2966;52.598;10.928;2022-11-20T05:53:23;-1.10;99.90
5881;DHT22;2966;52.598;10.928;2022-11-20T05:55:56;-1.10;99.90
5881;DHT22;2966;52.598;10.928;2022-11-20T05:58:23;-1.10;99.90
5881;DHT22;2966;52.598;10.928;2022-11-20T06:00:51;-1.10;99.90
5881;DHT22;2966;52.598;10.928;2022-11-20T06:03:18;-1.10;99.90
5881;DHT22;2966;52.598;10.928;2022-11-20T06:05:44;-1.10;99.90
5881;DHT22;2966;52.598;10.928;2022-11-20T06:08:13;-1.10;99.90
5881;DHT22;2966;52.598;10.928;2022-11-20T06:10:39;-1.10;99.90
5881;DHT22;2966;52.598;10.928;2022-11-20T06:13:06;-1.10;99.90
5881;DHT22;2966;52.598;10.928;2022-11-20T06:15:33;-1.10;99.90
5881;DHT22;2966;52.598;10.928;2022-11-20T06:18:00;-1.10;99.90
5881;DHT22;2966;52.598;10.928;2022-11-20T06:20:27;-1.10;99.90
5881;DHT22;2966;52.598;10.928;2022-11-20T06:22:54;-1.10;99.90
5881;DHT22;2966;52.598;10.928;2022-11-20T06:25:22;-1.10;99.90
5881;DHT22;2966;52.598;10.928;2022-11-20T06:27:48;-1.10;99.90
5881;DHT22;2966;52.598;10.928;2022-11-20T06:30:15;-1.10;99.90
5881;DHT22;2966;52.598;10.928;2022-11-20T06:32:42;-1.10;99.90
5881;DHT22;2966;52.598;10.928;2022-11-20T06:35:09;-1.10;99.90
5881;DHT22;2966;52.598;10.928;2022-11-20T06:37:36;-1.20;99.90
5881;DHT22;2966;52.598;10.928;2022-11-20T06:40:04;-1.20;99.90
5881;DHT22;2966;52.598;10.928;2022-11-20T06:42:33;-1.10;99.90
5881;DHT22;2966;52.598;10.928;2022-11-20T06:45:00;-1.20;99.90
5881;DHT22;2966;52.598;10.928;2022-11-20T06:47:27;-1.20;99.90
5881;DHT22;2966;52.598;10.928;2022-11-20T06:49:53;-1.20;99.90
5881;DHT22;2966;52.598;10.928;2022-11-20T06:52:20;-1.10;99.90
5881;DHT22;2966;52.598;10.928;2022-11-20T06:54:47;-1.20;99.90
5881;DHT22;2966;52.598;10.928;2022-11-20T06:57:14;-1.20;99.90
5881;DHT22;2966;52.598;10.928;2022-11-20T06:59:42;-1.20;99.90
5881;DHT22;2966;52.598;10.928;2022-11-20T07:02:09;-1.20;99.90
5881;DHT22;2966;52.598;10.928;2022-11-20T07:04:37;-1.20;99.90
5881;DHT22;2966;52.598;10.928;2022-11-20T07:07:04;-1.20;99.90
5881;DHT22;2966;52.598;10.928;2022-11-20T07:09:31;-1.20;99.90
5881;DHT22;2966;52.598;10.928;2022-11-20T07:11:59;-1.20;99.90
5881;DHT22;2966;52.598;10.928;2022-11-20T07:14:25;-1.20;99.90
5881;DHT22;2966;52.598;10.928;2022-11-20T07:16:54;-1.20;99.90
5881;DHT22;2966;52.598;10.928;2022-11-20T07:19:20;-1.20;99.90
5881;DHT22;2966;52.598;10.928;2022-11-20T07:21:47;-1.20;99.90
5881;DHT22;2966;52.598;10.928;2022-11-20T07:24:14;-1.20;99.90
5881;DHT22;2966;52.598;10.928;2022-11-20T07:26:41;-1.20;99.90
5881;DHT22;2966;52.598;10.928;2022-11-20T07:29:08;-1.20;99.90
5881;DHT22;2966;52.598;10.928;2022-11-20T07:31:35;-1.20;99.90
5881;DHT22;2966;52.598;10.928;2022-11-20T07:34:03;-1.20;99.90
5881;DHT22;2966;52.598;10.928;2022-11-20T07:36:30;-1.20;99.90
5881;DHT22;2966;52.598;10.928;2022-11-20T07:38:57;-1.20;99.90
5881;DHT22;2966;52.598;10.928;2022-11-20T07:41:24;-1.20;99.90
5881;DHT22;2966;52.598;10.928;2022-11-20T07:43:51;-1.20;99.90
5881;DHT22;2966;52.598;10.928;2022-11-20T07:46:17;-1.20;99.90
5881;DHT22;2966;52.598;10.928;2022-11-20T07:48:44;-1.10;99.90
5881;DHT22;2966;52.598;10.928;2022-11-20T07:51:12;-1.10;99.90
5881;DHT22;2966;52.598;10.928;2022-11-20T07:53:39;-1.10;99.90
5881;DHT22;2966;52.598;10.928;2022-11-20T07:56:07;-1.10;99.90
5881;DHT22;2966;52.598;10.928;2022-11-20T07:58:33;-1.00;99.90
5881;DHT22;2966;52.598;10.928;2022-11-20T08:01:03;-1.00;99.90
5881;DHT22;2966;52.598;10.928;2022-11-20T08:03:30;-1.00;99.90
5881;DHT22;2966;52.598;10.928;2022-11-20T08:05:58;-1.00;99.90
5881;DHT22;2966;52.598;10.928;2022-11-20T08:08:27;-1.00;99.90
5881;DHT22;2966;52.598;10.928;2022-11-20T08:10:56;-1.00;99.90
5881;DHT22;2966;52.598;10.928;2022-11-20T08:13:43;-1.00;99.90
5881;DHT22;2966;52.598;10.928;2022-11-20T08:16:27;-1.00;99.90
5881;DHT22;2966;52.598;10.928;2022-11-20T08:18:54;-1.00;99.90
5881;DHT22;2966;52.598;10.928;2022-11-20T08:21:21;-0.90;99.90
5881;DHT22;2966;52.598;10.928;2022-11-20T08:23:50;-0.90;99.90
5881;DHT22;2966;52.598;10.928;2022-11-20T08:26:17;-0.90;99.90
5881;DHT22;2966;52.598;10.928;2022-11-20T08:28:44;-0.80;99.90
5881;DHT22;2966;52.598;10.928;2022-11-20T08:31:11;-0.90;99.90
5881;DHT22;2966;52.598;10.928;2022-11-20T08:33:38;-0.80;99.90
5881;DHT22;2966;52.598;10.928;2022-11-20T08:36:06;-0.80;99.90
5881;DHT22;2966;52.598;10.928;2022-11-20T08:38:33;-0.80;99.90
5881;DHT22;2966;52.598;10.928;2022-11-20T08:41:03;-0.70;99.90
5881;DHT22;2966;52.598;10.928;2022-11-20T08:43:48;-0.70;99.90
5881;DHT22;2966;52.598;10.928;2022-11-20T08:46:15;-0.80;99.90
5881;DHT22;2966;52.598;10.928;2022-11-20T08:48:42;-0.70;99.90
5881;DHT22;2966;52.598;10.928;2022-11-20T08:51:09;-0.70;99.90
5881;DHT22;2966;52.598;10.928;2022-11-20T08:53:36;-0.70;99.90
5881;DHT22;2966;52.598;10.928;2022-11-20T08:56:04;-0.60;99.90
5881;DHT22;2966;52.598;10.928;2022-11-20T08:58:31;-0.60;99.90
5881;DHT22;2966;52.598;10.928;2022-11-20T09:00:58;-0.60;99.90
5881;DHT22;2966;52.598;10.928;2022-11-20T09:03:25;-0.60;99.90
5881;DHT22;2966;52.598;10.928;2022-11-20T09:05:57;-0.60;99.90
5881;DHT22;2966;52.598;10.928;2022-11-20T09:08:24;-0.60;99.90
5881;DHT22;2966;52.598;10.928;2022-11-20T09:10:51;-0.50;99.90
5881;DHT22;2966;52.598;10.928;2022-11-20T09:13:20;-0.50;99.90
5881;DHT22;2966;52.598;10.928;2022-11-20T09:15:46;-0.60;99.90
5881;DHT22;2966;52.598;10.928;2022-11-20T09:18:13;-0.50;99.90
5881;DHT22;2966;52.598;10.928;2022-11-20T09:20:40;-0.50;99.90
5881;DHT22;2966;52.598;10.928;2022-11-20T09:23:07;-0.50;99.90
5881;DHT22;2966;52.598;10.928;2022-11-20T09:25:33;-0.50;99.90
5881;DHT22;2966;52.598;10.928;2022-11-20T09:28:00;-0.40;99.90
5881;DHT22;2966;52.598;10.928;2022-11-20T09:30:29;-0.30;99.90
5881;DHT22;2966;52.598;10.928;2022-11-20T09:32:56;-0.20;99.90
5881;DHT22;2966;52.598;10.928;2022-11-20T09:35:26;-0.20;99.90
5881;DHT22;2966;52.598;10.928;2022-11-20T09:37:53;-0.20;99.90
5881;DHT22;2966;52.598;10.928;2022-11-20T09:40:22;-0.20;99.90
5881;DHT22;2966;52.598;10.928;2022-11-20T09:42:54;-0.20;99.90
5881;DHT22;2966;52.598;10.928;2022-11-20T09:45:24;-0.10;99.90
5881;DHT22;2966;52.598;10.928;2022-11-20T09:48:14;-0.10;99.90
5881;DHT22;2966;52.598;10.928;2022-11-20T09:50:48;0.00;99.90
5881;DHT22;2966;52.598;10.928;2022-11-20T09:53:24;-0.20;99.90
5881;DHT22;2966;52.598;10.928;2022-11-20T09:55:54;-0.10;99.90
5881;DHT22;2966;52.598;10.928;2022-11-20T09:58:27;0.00;99.90
5881;DHT22;2966;52.598;10.928;2022-11-20T10:01:01;0.00;99.90
5881;DHT22;2966;52.598;10.928;2022-11-20T10:03:37;-0.10;99.90
5881;DHT22;2966;52.598;10.928;2022-11-20T10:06:10;0.00;99.90
5881;DHT22;2966;52.598;10.928;2022-11-20T10:08:42;0.00;99.90
5881;DHT22;2966;52.598;10.928;2022-11-20T10:11:15;0.10;99.90
5881;DHT22;2966;52.598;10.928;2022-11-20T10:13:49;0.10;99.90
5881;DHT22;2966;52.598;10.928;2022-11-20T10:16:27;0.10;99.90
5881;DHT22;2966;52.598;10.928;2022-11-20T10:19:09;0.10;99.90
5881;DHT22;2966;52.598;10.928;2022-11-20T10:22:03;0.10;99.90
5881;DHT22;2966;52.598;10.928;2022-11-20T10:24:46;0.10;99.90
5881;DHT22;2966;52.598;10.928;2022-11-20T10:27:38;0.20;99.90
5881;DHT22;2966;52.598;10.928;2022-11-20T10:30:09;0.30;99.90
5881;DHT22;2966;52.598;10.928;2022-11-20T10:32:39;0.30;99.90
5881;DHT22;2966;52.598;10.928;2022-11-20T10:35:20;0.30;99.90
5881;DHT22;2966;52.598;10.928;2022-11-20T10:37:50;0.30;99.90
5881;DHT22;2966;52.598;10.928;2022-11-20T10:40:22;0.30;99.90
5881;DHT22;2966;52.598;10.928;2022-11-20T10:42:53;0.40;99.90
5881;DHT22;2966;52.598;10.928;2022-11-20T10:45:40;0.50;99.90
5881;DHT22;2966;52.598;10.928;2022-11-20T10:48:16;0.70;99.90
5881;DHT22;2966;52.598;10.928;2022-11-20T10:51:05;0.80;99.90
5881;DHT22;2966;52.598;10.928;2022-11-20T10:53:45;0.70;99.90
5881;DHT22;2966;52.598;10.928;2022-11-20T10:56:19;0.80;99.90
5881;DHT22;2966;52.598;10.928;2022-11-20T10:58:57;0.90;99.90
5881;DHT22;2966;52.598;10.928;2022-11-20T11:01:26;0.80;99.90
5881;DHT22;2966;52.598;10.928;2022-11-20T11:03:55;0.90;99.90
5881;DHT22;2966;52.598;10.928;2022-11-20T11:06:28;0.80;99.90
5881;DHT22;2966;52.598;10.928;2022-11-20T11:08:59;0.90;99.90
5881;DHT22;2966;52.598;10.928;2022-11-20T11:11:30;0.90;99.90
5881;DHT22;2966;52.598;10.928;2022-11-20T11:14:05;0.90;99.90
5881;DHT22;2966;52.598;10.928;2022-11-20T11:16:32;0.90;99.90
5881;DHT22;2966;52.598;10.928;2022-11-20T11:19:06;1.00;99.90
5881;DHT22;2966;52.598;10.928;2022-11-20T11:21:34;1.20;99.90
5881;DHT22;2966;52.598;10.928;2022-11-20T11:24:19;1.30;99.90
5881;DHT22;2966;52.598;10.928;2022-11-20T11:26:51;1.40;99.90
5881;DHT22;2966;52.598;10.928;2022-11-20T11:29:19;1.60;99.90
5881;DHT22;2966;52.598;10.928;2022-11-20T11:31:46;1.70;99.90
5881;DHT22;2966;52.598;10.928;2022-11-20T11:34:14;1.70;99.90
5881;DHT22;2966;52.598;10.928;2022-11-20T11:36:52;1.60;99.90
5881;DHT22;2966;52.598;10.928;2022-11-20T11:39:20;1.50;99.90
5881;DHT22;2966;52.598;10.928;2022-11-20T11:41:48;1.40;99.90
5881;DHT22;2966;52.598;10.928;2022-11-20T11:44:17;1.30;99.90
5881;DHT22;2966;52.598;10.928;2022-11-20T11:47:04;1.20;99.90
5881;DHT22;2966;52.598;10.928;2022-11-20T11:49:31;1.10;99.90
5881;DHT22;2966;52.598;10.928;2022-11-20T11:52:05;1.10;99.90
5881;DHT22;2966;52.598;10.928;2022-11-20T11:54:38;1.10;99.90
5881;DHT22;2966;52.598;10.928;2022-11-20T11:57:20;1.20;99.90
5881;DHT22;2966;52.598;10.928;2022-11-20T11:59:57;1.20;99.90
5881;DHT22;2966;52.598;10.928;2022-11-20T12:02:34;1.20;99.90
5881;DHT22;2966;52.598;10.928;2022-11-20T12:05:09;1.20;99.90
5881;DHT22;2966;52.598;10.928;2022-11-20T12:07:42;1.20;99.90
5881;DHT22;2966;52.598;10.928;2022-11-20T12:10:17;1.30;99.90
5881;DHT22;2966;52.598;10.928;2022-11-20T12:12:46;1.40;99.90
5881;DHT22;2966;52.598;10.928;2022-11-20T12:15:25;1.40;99.90
5881;DHT22;2966;52.598;10.928;2022-11-20T12:17:52;1.40;99.90
5881;DHT22;2966;52.598;10.928;2022-11-20T12:20:20;1.40;99.90
5881;DHT22;2966;52.598;10.928;2022-11-20T12:22:59;1.40;99.90
5881;DHT22;2966;52.598;10.928;2022-11-20T12:25:29;1.30;99.90
5881;DHT22;2966;52.598;10.928;2022-11-20T12:28:19;1.20;99.90
5881;DHT22;2966;52.598;10.928;2022-11-20T12:31:02;1.20;99.90
5881;DHT22;2966;52.598;10.928;2022-11-20T12:34:00;1.50;99.90
5881;DHT22;2966;52.598;10.928;2022-11-20T12:36:37;1.60;99.90
5881;DHT22;2966;52.598;10.928;2022-11-20T12:39:25;1.60;99.90
5881;DHT22;2966;52.598;10.928;2022-11-20T12:45:20;1.20;99.90
5881;DHT22;2966;52.598;10.928;2022-11-20T12:51:15;1.10;99.90
5881;DHT22;2966;52.598;10.928;2022-11-20T12:53:54;1.10;99.90
5881;DHT22;2966;52.598;10.928;2022-11-20T12:56:34;1.00;99.90
5881;DHT22;2966;52.598;10.928;2022-11-20T12:59:19;1.10;99.90
5881;DHT22;2966;52.598;10.928;2022-11-20T13:01:53;1.10;99.90
5881;DHT22;2966;52.598;10.928;2022-11-20T13:04:44;1.10;99.90
5881;DHT22;2966;52.598;10.928;2022-11-20T13:07:16;1.10;99.90
5881;DHT22;2966;52.598;10.928;2022-11-20T13:09:45;1.10;99.90
5881;DHT22;2966;52.598;10.928;2022-11-20T13:12:19;1.20;99.90
5881;DHT22;2966;52.598;10.928;2022-11-20T13:14:53;1.20;99.90
5881;DHT22;2966;52.598;10.928;2022-11-20T13:17:27;1.20;99.90
5881;DHT22;2966;52.598;10.928;2022-11-20T13:19:58;1.40;99.90
5881;DHT22;2966;52.598;10.928;2022-11-20T13:22:26;1.30;99.90
5881;DHT22;2966;52.598;10.928;2022-11-20T13:24:53;1.40;99.90
5881;DHT22;2966;52.598;10.928;2022-11-20T13:27:22;1.40;99.90
5881;DHT22;2966;52.598;10.928;2022-11-20T13:30:14;1.20;99.90
5881;DHT22;2966;52.598;10.928;2022-11-20T13:32:53;1.00;99.90
5881;DHT22;2966;52.598;10.928;2022-11-20T13:35:29;0.90;99.90
5881;DHT22;2966;52.598;10.928;2022-11-20T13:38:04;0.70;99.90
5881;DHT22;2966;52.598;10.928;2022-11-20T13:40:32;0.60;99.90
5881;DHT22;2966;52.598;10.928;2022-11-20T13:43:10;0.50;99.90
5881;DHT22;2966;52.598;10.928;2022-11-20T13:45:41;0.40;99.90
5881;DHT22;2966;52.598;10.928;2022-11-20T13:48:20;0.40;99.90
5881;DHT22;2966;52.598;10.928;2022-11-20T13:50:56;0.30;99.90
5881;DHT22;2966;52.598;10.928;2022-11-20T13:53:48;0.20;99.90
5881;DHT22;2966;52.598;10.928;2022-11-20T13:56:24;0.20;99.90
5881;DHT22;2966;52.598;10.928;2022-11-20T13:59:02;0.20;99.90
5881;DHT22;2966;52.598;10.928;2022-11-20T14:01:32;0.10;99.90
5881;DHT22;2966;52.598;10.928;2022-11-20T14:04:05;0.20;99.90
5881;DHT22;2966;52.598;10.928;2022-11-20T14:06:39;0.10;99.90
5881;DHT22;2966;52.598;10.928;2022-11-20T14:09:11;0.10;99.90
5881;DHT22;2966;52.598;10.928;2022-11-20T14:11:46;0.10;99.90
5881;DHT22;2966;52.598;10.928;2022-11-20T14:14:16;0.20;99.90
5881;DHT22;2966;52.598;10.928;2022-11-20T14:16:45;0.20;99.90
5881;DHT22;2966;52.598;10.928;2022-11-20T14:19:27;0.30;99.90
5881;DHT22;2966;52.598;10.928;2022-11-20T14:22:08;0.30;99.90
5881;DHT22;2966;52.598;10.928;2022-11-20T14:24:36;0.30;99.90
5881;DHT22;2966;52.598;10.928;2022-11-20T14:27:03;0.30;99.90
5881;DHT22;2966;52.598;10.928;2022-11-20T14:29:34;0.30;99.90
5881;DHT22;2966;52.598;10.928;2022-11-20T14:32:03;0.30;99.90
5881;DHT22;2966;52.598;10.928;2022-11-20T14:34:32;0.30;99.90
5881;DHT22;2966;52.598;10.928;2022-11-20T14:37:04;0.30;99.90
5881;DHT22;2966;52.598;10.928;2022-11-20T14:39:34;0.30;99.90
5881;DHT22;2966;52.598;10.928;2022-11-20T14:42:01;0.30;99.90
5881;DHT22;2966;52.598;10.928;2022-11-20T14:44:33;0.20;99.90
5881;DHT22;2966;52.598;10.928;2022-11-20T14:47:02;0.20;99.90
5881;DHT22;2966;52.598;10.928;2022-11-20T14:49:30;0.10;99.90
5881;DHT22;2966;52.598;10.928;2022-11-20T14:52:02;0.10;99.90
5881;DHT22;2966;52.598;10.928;2022-11-20T14:54:29;0.10;99.90
5881;DHT22;2966;52.598;10.928;2022-11-20T14:56:58;0.10;99.90
5881;DHT22;2966;52.598;10.928;2022-11-20T14:59:26;0.10;99.90
5881;DHT22;2966;52.598;10.928;2022-11-20T15:01:57;0.10;99.90
5881;DHT22;2966;52.598;10.928;2022-11-20T15:04:25;0.10;99.90
5881;DHT22;2966;52.598;10.928;2022-11-20T15:06:55;0.10;99.90
5881;DHT22;2966;52.598;10.928;2022-11-20T15:09:22;0.00;99.90
5881;DHT22;2966;52.598;10.928;2022-11-20T15:11:54;0.00;99.90
5881;DHT22;2966;52.598;10.928;2022-11-20T15:14:22;0.00;99.90
5881;DHT22;2966;52.598;10.928;2022-11-20T15:16:50;0.00;99.90
5881;DHT22;2966;52.598;10.928;2022-11-20T15:19:21;-0.10;99.90
5881;DHT22;2966;52.598;10.928;2022-11-20T15:21:48;-0.10;99.90
5881;DHT22;2966;52.598;10.928;2022-11-20T15:24:16;-0.10;99.90
5881;DHT22;2966;52.598;10.928;2022-11-20T15:26:44;-0.10;99.90
5881;DHT22;2966;52.598;10.928;2022-11-20T15:29:12;-0.10;99.90
5881;DHT22;2966;52.598;10.928;2022-11-20T15:31:40;-0.10;99.90
5881;DHT22;2966;52.598;10.928;2022-11-20T15:34:10;-0.10;99.90
5881;DHT22;2966;52.598;10.928;2022-11-20T15:36:40;-0.10;99.90
5881;DHT22;2966;52.598;10.928;2022-11-20T15:39:07;-0.10;99.90
5881;DHT22;2966;52.598;10.928;2022-11-20T15:41:35;-0.10;99.90
5881;DHT22;2966;52.598;10.928;2022-11-20T15:44:02;0.00;99.90
5881;DHT22;2966;52.598;10.928;2022-11-20T15:46:32;0.00;99.90
5881;DHT22;2966;52.598;10.928;2022-11-20T15:49:03;0.00;99.90
5881;DHT22;2966;52.598;10.928;2022-11-20T15:51:31;0.00;99.90
5881;DHT22;2966;52.598;10.928;2022-11-20T15:54:05;0.00;99.90
5881;DHT22;2966;52.598;10.928;2022-11-20T15:56:35;-0.10;99.90
5881;DHT22;2966;52.598;10.928;2022-11-20T15:59:02;-0.20;99.90
5881;DHT22;2966;52.598;10.928;2022-11-20T16:01:29;-0.20;99.90
5881;DHT22;2966;52.598;10.928;2022-11-20T16:03:57;-0.30;99.90
5881;DHT22;2966;52.598;10.928;2022-11-20T16:06:24;-0.30;99.90
5881;DHT22;2966;52.598;10.928;2022-11-20T16:08:51;-0.30;99.90
5881;DHT22;2966;52.598;10.928;2022-11-20T16:11:19;-0.30;99.90
5881;DHT22;2966;52.598;10.928;2022-11-20T16:13:46;-0.30;99.90
5881;DHT22;2966;52.598;10.928;2022-11-20T16:16:32;-0.30;99.90
5881;DHT22;2966;52.598;10.928;2022-11-20T16:18:59;-0.30;99.90
5881;DHT22;2966;52.598;10.928;2022-11-20T16:21:26;-0.30;99.90